Aérodrome :
LOGIN :

S'inscrire | Disclaimer

   EN    FR    IT 

 










Légende :    VFR   VFR Marginal   IFR   IFR Intensif   IFR Très Intensif
Visi : 
Plafond : 
>= 8 km
>= 3000ft
5 à 8 km
1000 à 3000 ft
1500m à 5 km
500 à 1000 ft
800 à 1500m
200 à 500 ft
< 800m
< 200 ft
Symboles :   Orages  Brouillard  Fortes neiges  Fortes précipitations  Vent > 20 kt
SIGMETs :   Divers  Orages  Givrage  Turbulence  Onde Orograph.  Cendres Volcan.







- Altitude de l'aérodrome : 357 ft
- Code IATA : TUF
- Voir les cartes d'approche


LFOT - Tours

DERNIER METAR :
  • 192100Z AUTO 23005KT CAVOK 19/13 Q1021 NOSIG

METARs EXPIRÉS :
  • 192030Z AUTO 23004KT CAVOK 20/13 Q1021 NOSIG
  • 192000Z AUTO 23004KT CAVOK 20/14 Q1021 NOSIG
  • 191930Z AUTO 23005KT CAVOK 21/14 Q1020 NOSIG
  • 191900Z AUTO 22004KT 190V250 CAVOK 21/14 Q1020 NOSIG
  • 191830Z AUTO 24003KT 200V270 CAVOK 22/14 Q1020 NOSIG

TAF TAF LFOT
Valide du 19 à 18h jusqu'au 20 à 18h UTC


191700Z 1918/2018 24008KT CAVOK
TEMPO 2003/2007 1200 BR BKN005
TEMPO 2007/2009 BKN012
Pas de NOTAMs connus pour ce terrain.



MET'MAP, la Météo Aéronautique d'un coup d'oeil ! - Copyright ORBIFLY Décembre 2007 - Disclaimer

ORBIFLY MET'MAP TEAM :

Programmation & Développement : Alexandra Zaïnal
Conception & Développement : Baudouin d'Aumeries
Co-Programmation & Développement : Marc-Olivier Méhu
Soutien technique & logistique : Manuel Goepfert

Contact : metmap@orbifly.com




SOURCES & CREDITS :

   NOAA